Dades meteomassalio
Diari Summary for Juliol 13, 2017 Units:  Metric    English   Both
« Previous Day
Next Day »
Diari Semanal Mensual Anual Personalitzat
  Maxima: Minima: Mijana:
Temperatura: -17.8 °C -7.4 °C -1.8 °C
Rosada: -17.8 °C -10.1 °C -9.3 °C
Humitat: Humidity % 26 % 46 %
Velocitat del vent: 0 km/h 0 km/h 7.6 km/h
Racha vent: 0 km/h - -
Vent:- - SSW
Pressio: 0 hPa 34293.4 hPa -
Pluja: 0 mm    
Historical Graphs
 
 
Tabular Data for Juliol 13, 2017
Time Temperature Dew Point Pressure Wind Wind Speed Wind Gust Humidity Rainfall Rate (Hourly) solar Conditions
-17.8 °C -17.8 °C 0 hPa Calm     Humidity % 0 mm SolarRadiationWatts/m^2 W/m2 Conditions
00:01 -1.2 °C -9.6 °C 34418.7 hPa Calm     40 % 0 mm 0.0 W/m2 CLR
00:06 -1.3 °C -9.6 °C 34418.7 hPa NW 23.8 km/h 23.8 km/h 40 % 0 mm 0.0 W/m2 CLR
00:11 -1.3 °C -9.6 °C 34418.7 hPa Calm     40 % 0 mm 0.0 W/m2 CLR
00:12 -1.3 °C -9.6 °C 34418.7 hPa North 10.3 km/h 10.3 km/h 40 % 0 mm 0.0 W/m2 CLR
00:17 -1.3 °C -9.7 °C 34418.7 hPa Calm     40 % 0 mm 0.0 W/m2 CLR
00:22 -1.3 °C -9.9 °C 34428.8 hPa Calm     39 % 0 mm 0.0 W/m2 CLR
00:27 -1.3 °C -9.7 °C 34428.8 hPa Calm     40 % 0 mm 0.0 W/m2 CLR
00:32 -1.4 °C -9.8 °C 34428.8 hPa Calm     40 % 0 mm 0.0 W/m2 CLR
00:37 -1.5 °C -9.8 °C 34428.8 hPa Calm     40 % 0 mm 0.0 W/m2 CLR
00:42 -1.6 °C -9.7 °C 34442.4 hPa Calm     41 % 0 mm 0.0 W/m2 CLR
00:47 -1.7 °C -9.6 °C 34428.8 hPa SW 9 km/h 9 km/h 42 % 0 mm 0.0 W/m2 CLR
00:52 -1.8 °C -9.6 °C 34442.4 hPa Calm     43 % 0 mm 0.0 W/m2 CLR
00:57 -2 °C -9.5 °C 34442.4 hPa Calm     44 % 0 mm 0.0 W/m2 CLR
01:02 -2.2 °C -9.4 °C 34442.4 hPa WSW 9 km/h   45 % 0 mm 0.0 W/m2 CLR
01:07 -2.3 °C -9.5 °C 34442.4 hPa Calm     45 % 0 mm 0.0 W/m2 CLR
01:12 -2.3 °C -9.3 °C 34442.4 hPa WSW 17.9 km/h 17.9 km/h 46 % 0 mm 0.0 W/m2 CLR
01:17 -2.4 °C -9.4 °C 34442.4 hPa WSW 11.9 km/h 11.9 km/h 46 % 0 mm 0.0 W/m2 CLR
01:22 -2.4 °C -9.4 °C 34442.4 hPa West 9 km/h   46 % 0 mm 0.0 W/m2 CLR
01:27 -2.4 °C -9.5 °C 34442.4 hPa WSW 9 km/h 9 km/h 46 % 0 mm 0.0 W/m2 CLR
01:33 -2.5 °C -9.3 °C 34442.4 hPa Calm     47 % 0 mm 0.0 W/m2 CLR
01:38 -2.6 °C -9.4 °C 34442.4 hPa Calm     47 % 0 mm 0.0 W/m2 CLR
01:43 -2.7 °C -9.3 °C 34442.4 hPa Calm     48 % 0 mm 0.0 W/m2 CLR
01:48 -2.8 °C -9.4 °C 34442.4 hPa Calm     48 % 0 mm 0.0 W/m2 CLR
01:53 -2.9 °C -9.2 °C 34442.4 hPa Calm     50 % 0 mm 0.0 W/m2 CLR
01:58 -3 °C -9.1 °C 34442.4 hPa Calm     51 % 0 mm 0.0 W/m2 CLR
02:03 -3.2 °C -9.2 °C 34442.4 hPa Calm     51 % 0 mm 0.0 W/m2 CLR
02:08 -3.2 °C -9.3 °C 34442.4 hPa Calm     51 % 0 mm 0.0 W/m2 CLR
02:09 -3.3 °C -9.3 °C 34442.4 hPa Calm     51 % 0 mm 0.0 W/m2 CLR
02:15 -3.3 °C -9.4 °C 34442.4 hPa Calm     51 % 0 mm 0.0 W/m2 CLR
02:20 -3.3 °C -10.1 °C 34442.4 hPa West 11.9 km/h 11.9 km/h 47 % 0 mm 0.0 W/m2 CLR
02:25 -3.1 °C -9.8 °C 34442.4 hPa Calm     47 % 0 mm 0.0 W/m2 CLR
02:30 -3 °C -9.5 °C 34442.4 hPa Calm     49 % 0 mm 0.0 W/m2 CLR
02:35 -3.1 °C -9.4 °C 34442.4 hPa Calm     50 % 0 mm 0.0 W/m2 CLR
02:40 -3.3 °C -9.6 °C 34442.4 hPa Calm     50 % 0 mm 0.0 W/m2 CLR
02:45 -3.4 °C -9.5 °C 34442.4 hPa Calm     51 % 0 mm 0.0 W/m2 CLR
02:50 -3.6 °C -9.8 °C 34442.4 hPa Calm     50 % 0 mm 0.0 W/m2 CLR
02:51 -3.6 °C -9.5 °C 34442.4 hPa Calm     52 % 0 mm 0.0 W/m2 CLR
02:56 -3.7 °C -9.4 °C 34442.4 hPa Calm     53 % 0 mm 0.0 W/m2 CLR
03:01 -3.8 °C -9.8 °C 34442.4 hPa Calm     51 % 0 mm 0.0 W/m2 CLR
03:06 -3.9 °C -9.1 °C 34442.4 hPa Calm     56 % 0 mm 0.0 W/m2 CLR
03:11 -4.1 °C -9.2 °C 34442.4 hPa Calm     57 % 0 mm 0.0 W/m2 CLR
03:16 -4.3 °C -9.2 °C 34442.4 hPa Calm     58 % 0 mm 0.0 W/m2 CLR
03:21 -4.6 °C -9.3 °C 34442.4 hPa Calm     59 % 0 mm 0.0 W/m2 CLR
03:26 -4.7 °C -9.2 °C 34452.6 hPa Calm     60 % 0 mm 0.0 W/m2 CLR
03:31 -4.8 °C -9.5 °C 34452.6 hPa Calm     59 % 0 mm 0.0 W/m2 CLR
03:36 -4.8 °C -9.6 °C 34452.6 hPa Calm     59 % 0 mm 0.0 W/m2 CLR
03:41 -4.9 °C -9.5 °C 34452.6 hPa Calm     60 % 0 mm 0.0 W/m2 CLR
03:46 -4.9 °C -9.3 °C 34452.6 hPa Calm     61 % 0 mm 0.0 W/m2 CLR
03:51 -5.1 °C -9.4 °C 34452.6 hPa Calm     61 % 0 mm 0.0 W/m2 CLR
03:56 -5.1 °C -9.4 °C 34452.6 hPa Calm     62 % 0 mm 0.0 W/m2 CLR
04:01 -5.2 °C -9.5 °C 34442.4 hPa Calm     62 % 0 mm 0.0 W/m2 CLR
04:06 -5.4 °C -9.5 °C 34442.4 hPa Calm     63 % 0 mm 0.0 W/m2 CLR
04:11 -5.5 °C -9.3 °C 34452.6 hPa Calm     65 % 0 mm 0.0 W/m2 CLR
04:16 -5.7 °C -9.5 °C 34452.6 hPa Calm     65 % 0 mm 0.0 W/m2 CLR
04:21 -5.7 °C -9.6 °C 34442.4 hPa Calm     65 % 0 mm 0.0 W/m2 CLR
04:26 -5.8 °C -9.6 °C 34452.6 hPa Calm     65 % 0 mm 0.0 W/m2 CLR
04:31 -5.9 °C -9.6 °C 34442.4 hPa Calm     66 % 0 mm 0.0 W/m2 CLR
04:36 -5.9 °C -9.5 °C 34442.4 hPa Calm     67 % 0 mm 0.0 W/m2 CLR
04:41 -6 °C -9.4 °C 34452.6 hPa Calm     68 % 0 mm 0.0 W/m2 CLR
04:46 -6.1 °C -9.4 °C 34452.6 hPa Calm     69 % 0 mm 0.0 W/m2 CLR
04:51 -6.2 °C -9.6 °C 34452.6 hPa Calm     68 % 0 mm 0.0 W/m2 CLR
04:56 -6.3 °C -9.7 °C 34452.6 hPa Calm     68 % 0 mm 0.0 W/m2 CLR
05:01 -6.3 °C -9.8 °C 34452.6 hPa Calm     68 % 0 mm 0.0 W/m2 CLR
05:06 -6.4 °C -9.7 °C 34452.6 hPa Calm     69 % 0 mm 0.0 W/m2 CLR
05:11 -6.4 °C -9.7 °C 34452.6 hPa Calm     69 % 0 mm 0.0 W/m2 CLR
05:16 -6.5 °C -9.8 °C 34452.6 hPa Calm     69 % 0 mm 0.0 W/m2 CLR
05:21 -6.5 °C -9.9 °C 34452.6 hPa Calm     68 % 0 mm 0.0 W/m2 CLR
05:26 -6.6 °C -9.8 °C 34452.6 hPa Calm     69 % 0 mm 0.0 W/m2 CLR
05:31 -6.6 °C -9.9 °C 34452.6 hPa Calm     69 % 0 mm 0.0 W/m2 CLR
05:36 -6.7 °C -9.8 °C 34452.6 hPa Calm     70 % 0 mm 0.0 W/m2 CLR
05:41 -6.7 °C -9.9 °C 34452.6 hPa Calm     69 % 0 mm 0.0 W/m2 CLR
05:46 -6.7 °C -9.8 °C 34452.6 hPa Calm     70 % 0 mm 0.0 W/m2 CLR
05:51 -6.8 °C -9.9 °C 34452.6 hPa Calm     70 % 0 mm 0.0 W/m2 CLR
05:56 -6.8 °C -9.9 °C 34452.6 hPa Calm     70 % 0 mm 0.0 W/m2 CLR
06:01 -6.8 °C -9.8 °C 34452.6 hPa Calm     71 % 0 mm 0.0 W/m2 CLR
06:06 -6.9 °C -9.9 °C 34452.6 hPa Calm     71 % 0 mm 0.0 W/m2 CLR
06:07 -6.9 °C -9.9 °C 34452.6 hPa Calm     71 % 0 mm 0.0 W/m2 CLR
06:12 -7 °C -9.8 °C 34452.6 hPa Calm     72 % 0 mm 0.0 W/m2 CLR
06:17 -7.1 °C -9.9 °C 34452.6 hPa Calm     72 % 0 mm 0.0 W/m2 CLR
06:22 -7.2 °C -10.1 °C 34452.6 hPa Calm     72 % 0 mm 0.0 W/m2 CLR
06:27 -7.2 °C -9.9 °C 34452.6 hPa Calm     73 % 0 mm 0.0 W/m2 CLR
06:32 -7.3 °C -10.1 °C 34462.7 hPa Calm     73 % 0 mm 0.0 W/m2 OVC
06:37 -7.3 °C -9.9 °C 34462.7 hPa Calm     74 % 0 mm 5.0 W/m2 OVC
06:42 -7.3 °C -9.8 °C 34462.7 hPa Calm     75 % 0 mm 7.0 W/m2 BKN
06:47 -7.3 °C -9.8 °C 34462.7 hPa Calm     75 % 0 mm 9.0 W/m2 BKN
06:52 -7.3 °C -9.8 °C 34462.7 hPa Calm     75 % 0 mm 12.0 W/m2 BKN
06:57 -7.4 °C -9.9 °C 34462.7 hPa Calm     75 % 0 mm 16.0 W/m2 BKN
07:02 -7.4 °C -9.9 °C 34462.7 hPa Calm     75 % 0 mm 18.0 W/m2 BKN
07:07 -7.4 °C -9.8 °C 34462.7 hPa Calm     76 % 0 mm 21.0 W/m2 BKN
07:12 -7.4 °C -9.9 °C 34462.7 hPa Calm     76 % 0 mm 25.0 W/m2 BKN
07:17 -7.4 °C -9.9 °C 34476.3 hPa Calm     76 % 0 mm 32.0 W/m2 BKN
07:22 -7.4 °C -9.9 °C 34476.3 hPa Calm     75 % 0 mm 40.0 W/m2 BKN
07:27 -7.3 °C -9.9 °C 34476.3 hPa Calm     74 % 0 mm 49.0 W/m2 SCT
07:32 -7.2 °C -9.8 °C 34476.3 hPa Calm     74 % 0 mm 60.0 W/m2 SCT
07:37 -7.2 °C -9.8 °C 34476.3 hPa Calm     74 % 0 mm 72.0 W/m2 FEW
07:42 -7.1 °C -9.8 °C 34476.3 hPa Calm     73 % 0 mm 84.0 W/m2 FEW
07:47 -7 °C -9.9 °C 34476.3 hPa Calm     72 % 0 mm 98.0 W/m2 FEW
07:52 -6.9 °C -9.8 °C 34476.3 hPa Calm     72 % 0 mm 111.0 W/m2 CLR
07:57 -6.8 °C -9.7 °C 34476.3 hPa Calm     72 % 0 mm 128.0 W/m2 CLR
08:02 -6.6 °C -9.6 °C 34476.3 hPa Calm     72 % 0 mm 144.0 W/m2 CLR
08:08 -6.4 °C -9.6 °C 34476.3 hPa Calm     70 % 0 mm 163.0 W/m2 CLR
08:13 -6.3 °C -9.6 °C 34476.3 hPa Calm     69 % 0 mm 179.0 W/m2 CLR
08:18 -6.1 °C -9.5 °C 34486.4 hPa Calm     68 % 0 mm 195.0 W/m2 CLR
08:23 -5.9 °C -9.6 °C 34486.4 hPa Calm     66 % 0 mm 211.0 W/m2 CLR
08:28 -5.7 °C -9.3 °C 34486.4 hPa Calm     66 % 0 mm 227.0 W/m2 CLR
08:33 -5.5 °C -9.2 °C 34476.3 hPa Calm     66 % 0 mm 244.0 W/m2 CLR
08:38 -5.4 °C -9 °C 34476.3 hPa Calm     67 % 0 mm 258.0 W/m2 CLR
08:43 -5.2 °C -8.8 °C 34476.3 hPa Calm     67 % 0 mm 274.0 W/m2 CLR
08:48 -5.1 °C -9.1 °C 34476.3 hPa Calm     64 % 0 mm 288.0 W/m2 CLR
08:53 -4.9 °C -9.1 °C 34476.3 hPa Calm     62 % 0 mm 306.0 W/m2 CLR
08:58 -4.7 °C -9.1 °C 34476.3 hPa Calm     61 % 0 mm 320.0 W/m2 CLR
09:03 -4.5 °C -9.2 °C 34476.3 hPa WSW 11.9 km/h 11.9 km/h 59 % 0 mm 334.0 W/m2 CLR
09:08 -4.4 °C -9.1 °C 34476.3 hPa SW 15 km/h 15 km/h 59 % 0 mm 352.0 W/m2 CLR
09:13 -4.2 °C -9.1 °C 34476.3 hPa SSW 9 km/h 9 km/h 58 % 0 mm 369.0 W/m2 CLR
09:18 -4.1 °C -9.2 °C 34476.3 hPa SW 11.9 km/h 11.9 km/h 57 % 0 mm 383.0 W/m2 CLR
09:23 -3.9 °C -9.2 °C 34462.7 hPa SW 18.2 km/h 18.2 km/h 56 % 0 mm 397.0 W/m2 CLR
09:28 -3.9 °C -8.9 °C 34476.3 hPa Calm     57 % 0 mm 413.0 W/m2 CLR
09:33 -3.8 °C -9 °C 34476.3 hPa NW 17.9 km/h 17.9 km/h 56 % 0 mm 431.0 W/m2 CLR
09:38 -3.7 °C -9.1 °C 34476.3 hPa North 15 km/h 15 km/h 55 % 0 mm 446.0 W/m2 CLR
09:43 -3.7 °C -9.1 °C 34476.3 hPa NNW 11.9 km/h 11.9 km/h 55 % 0 mm 462.0 W/m2 CLR
09:48 -3.7 °C -9.1 °C 34476.3 hPa NW 17.9 km/h 17.9 km/h 55 % 0 mm 476.0 W/m2 CLR
09:53 -3.6 °C -9.2 °C 34476.3 hPa NNW 11.9 km/h 11.9 km/h 54 % 0 mm 492.0 W/m2 CLR
09:58 -3.6 °C -9 °C 34476.3 hPa Calm     55 % 0 mm 508.0 W/m2 CLR
10:03 -3.6 °C -8.9 °C 34462.7 hPa WNW 3.1 km/h   55 % 0 mm 522.0 W/m2 CLR
10:08 -3.4 °C -9 °C 34476.3 hPa NW 11.9 km/h 11.9 km/h 54 % 0 mm 538.0 W/m2 CLR
10:13 -3.4 °C -9.1 °C 34462.7 hPa NNE 5.1 km/h 5.1 km/h 53 % 0 mm 552.0 W/m2 CLR
10:18 -3.3 °C -9.1 °C 34462.7 hPa Calm     53 % 0 mm 568.0 W/m2 CLR
10:23 -3.2 °C -9 °C 34462.7 hPa Calm     53 % 0 mm 580.0 W/m2 CLR
10:28 -3.1 °C -9 °C 34462.7 hPa North 11.9 km/h 11.9 km/h 52 % 0 mm 594.0 W/m2 CLR
10:33 -3.1 °C -9.1 °C 34462.7 hPa Calm     51 % 0 mm 606.0 W/m2 CLR
10:38 -3 °C -8.9 °C 34462.7 hPa NW 6 km/h   52 % 0 mm 622.0 W/m2 CLR
10:43 -2.9 °C -8.8 °C 34462.7 hPa Calm     52 % 0 mm 633.0 W/m2 CLR
10:48 -2.7 °C -8.8 °C 34462.7 hPa Calm     51 % 0 mm 649.0 W/m2 CLR
10:53 -2.6 °C -8.8 °C 34462.7 hPa Calm     50 % 0 mm 661.0 W/m2 CLR
10:58 -2.3 °C -8.8 °C 34452.6 hPa ENE 9 km/h 9 km/h 49 % 0 mm 671.0 W/m2 CLR
11:03 -2.3 °C -8.9 °C 34452.6 hPa ESE 6 km/h   48 % 0 mm 687.0 W/m2 CLR
11:08 -2.2 °C -8.7 °C 34452.6 hPa East 9 km/h 9 km/h 49 % 0 mm 701.0 W/m2 CLR
11:13 -2.2 °C -8.9 °C 34452.6 hPa ENE 6 km/h 6 km/h 48 % 0 mm 712.0 W/m2 CLR
11:18 -2.2 °C -8.8 °C 34452.6 hPa ENE 12.9 km/h 12.9 km/h 48 % 0 mm 724.0 W/m2 CLR
11:23 -2.2 °C -8.9 °C 34452.6 hPa ENE 15 km/h 15 km/h 48 % 0 mm 737.0 W/m2 CLR
11:28 -2.1 °C -8.8 °C 34452.6 hPa ENE 15 km/h 15 km/h 48 % 0 mm 749.0 W/m2 CLR
11:33 -2 °C -8.8 °C 34452.6 hPa Calm     47 % 0 mm 759.0 W/m2 CLR
11:38 -1.9 °C -9 °C 34442.4 hPa Calm     46 % 0 mm 770.0 W/m2 CLR
11:43 -1.9 °C -9 °C 34442.4 hPa SSE 11.9 km/h 11.9 km/h 46 % 0 mm 782.0 W/m2 CLR
11:48 -1.9 °C -9 °C 34442.4 hPa ENE 3.1 km/h   46 % 0 mm 793.0 W/m2 CLR
11:49 -1.9 °C -9 °C 34442.4 hPa Calm     46 % 0 mm 795.0 W/m2 CLR
11:54 -1.6 °C -9.1 °C 34442.4 hPa ENE 9 km/h   44 % 0 mm 803.0 W/m2 CLR
11:59 -1.5 °C -8.8 °C 34442.4 hPa Calm     45 % 0 mm 814.0 W/m2 CLR
12:04 -1.3 °C -9 °C 34428.8 hPa West 9 km/h 9 km/h 43 % 0 mm 821.0 W/m2 CLR
12:09 -1.3 °C -8.8 °C 34428.8 hPa North 11.9 km/h 11.9 km/h 44 % 0 mm 830.0 W/m2 CLR
12:14 -1.2 °C -8.8 °C 34428.8 hPa NW 11.9 km/h 11.9 km/h 44 % 0 mm 835.0 W/m2 CLR
12:19 -1.1 °C -9.1 °C 34428.8 hPa Calm     42 % 0 mm 847.0 W/m2 CLR
12:24 -0.9 °C -8.7 °C 34428.8 hPa ENE 3.1 km/h 3.1 km/h 43 % 0 mm 853.0 W/m2 CLR
12:29 -0.8 °C -8.8 °C 34428.8 hPa ENE 15.6 km/h 15.6 km/h 42 % 0 mm 861.0 W/m2 CLR
12:35 -0.9 °C -8.9 °C 34428.8 hPa Calm   0.3 km/h 42 % 0 mm 865.0 W/m2 CLR
12:40 -0.9 °C -8.9 °C 34428.8 hPa ENE 3.1 km/h 3.1 km/h 42 % 0 mm 872.0 W/m2 CLR
12:45 -0.8 °C -8.6 °C 34428.8 hPa ENE 17.9 km/h 17.9 km/h 43 % 0 mm 874.0 W/m2 CLR
12:50 -0.7 °C -8.7 °C 34418.7 hPa ENE 15 km/h 15 km/h 42 % 0 mm 881.0 W/m2 CLR
12:55 -0.7 °C -8.7 °C 34428.8 hPa ENE 11.9 km/h   42 % 0 mm 884.0 W/m2 CLR
13:00 -0.6 °C -8.8 °C 34428.8 hPa ENE 6 km/h   41 % 0 mm 889.0 W/m2 CLR
13:05 -0.6 °C -8.8 °C 34428.8 hPa Calm     41 % 0 mm 893.0 W/m2 CLR
13:10 -0.4 °C -8.7 °C 34418.7 hPa Calm     41 % 0 mm 900.0 W/m2 CLR
13:15 -0.2 °C -8.7 °C 34418.7 hPa Calm     40 % 0 mm 900.0 W/m2 CLR
13:20 -0.1 °C -8.4 °C 34418.7 hPa NNE 20.9 km/h 20.9 km/h 41 % 0 mm 909.0 W/m2 CLR
13:25 0 °C -8.7 °C 34418.7 hPa ENE 9 km/h   39 % 0 mm 909.0 W/m2 CLR
13:30 0.1 °C -8.7 °C 34405.1 hPa NE 17.9 km/h 17.9 km/h 39 % 0 mm 912.0 W/m2 CLR
13:35 0.1 °C -8.7 °C 34405.1 hPa ENE 9 km/h 9 km/h 39 % 0 mm 912.0 W/m2 CLR
13:40 -0.1 °C -8.7 °C 34405.1 hPa ENE 12.9 km/h 12.9 km/h 39 % 0 mm 912.0 W/m2 CLR
13:45 0.1 °C -8.8 °C 34405.1 hPa NNE 9 km/h 9 km/h 38 % 0 mm 919.0 W/m2 CLR
13:50 0.3 °C -8.7 °C 34395 hPa ENE 5.1 km/h 5.1 km/h 38 % 0 mm 919.0 W/m2 CLR
13:55 0.3 °C -8.9 °C 34395 hPa NNE 11.9 km/h 11.9 km/h 37 % 0 mm 921.0 W/m2 CLR
14:00 0.3 °C -8.7 °C 34405.1 hPa NE 20.9 km/h 20.9 km/h 38 % 0 mm 919.0 W/m2 CLR
14:05 0.4 °C -8.6 °C 34395 hPa NNE 15 km/h 15 km/h 38 % 0 mm 919.0 W/m2 CLR
14:10 0.4 °C -8.6 °C 34395 hPa North 10.3 km/h 10.3 km/h 38 % 0 mm 914.0 W/m2 CLR
14:15 0.5 °C -8.9 °C 34384.8 hPa ENE 9 km/h 9 km/h 36 % 0 mm 918.0 W/m2 CLR
14:20 0.7 °C -8.6 °C 34384.8 hPa North 15.6 km/h 15.6 km/h 37 % 0 mm 918.0 W/m2 CLR
14:25 0.7 °C -8.6 °C 34384.8 hPa NE 20.9 km/h 20.9 km/h 37 % 0 mm 916.0 W/m2 CLR
14:30 0.8 °C -8.7 °C 34384.8 hPa ENE 17.9 km/h 17.9 km/h 36 % 0 mm 918.0 W/m2 CLR
14:35 0.8 °C -8.7 °C 34384.8 hPa North 15.6 km/h 15.6 km/h 36 % 0 mm 911.0 W/m2 CLR
14:40 0.9 °C -8.8 °C 34384.8 hPa North 15 km/h 15 km/h 35 % 0 mm 909.0 W/m2 CLR
14:45 1 °C -8.5 °C 34371.3 hPa NNE 11.9 km/h 11.9 km/h 36 % 0 mm 904.0 W/m2 CLR
14:50 1.2 °C -8.9 °C 34371.3 hPa WNW 15 km/h 15 km/h 34 % 0 mm 898.0 W/m2 CLR
14:55 1.1 °C -8.9 °C 34371.3 hPa North 11.9 km/h 11.9 km/h 34 % 0 mm 895.0 W/m2 CLR
15:00 1.2 °C -8.6 °C 34371.3 hPa Calm     35 % 0 mm 889.0 W/m2 CLR
15:05 1.4 °C -8.7 °C 34361.1 hPa ENE 11.9 km/h 11.9 km/h 34 % 0 mm 886.0 W/m2 CLR
15:10 1.4 °C -8.9 °C 34361.1 hPa ENE 11.9 km/h 11.9 km/h 33 % 0 mm 879.0 W/m2 CLR
15:11 1.4 °C -8.7 °C 34361.1 hPa ENE 3.1 km/h   34 % 0 mm 881.0 W/m2 CLR
15:16 1.6 °C -8.5 °C 34361.1 hPa Calm   0.3 km/h 34 % 0 mm 882.0 W/m2 CLR
15:21 1.6 °C -9.1 °C 34361.1 hPa NNW 11.9 km/h 11.9 km/h 32 % 0 mm 872.0 W/m2 CLR
15:26 1.6 °C -9.1 °C 34361.1 hPa NNW 9 km/h 9 km/h 32 % 0 mm 867.0 W/m2 CLR
15:31 1.5 °C -9.1 °C 34347.6 hPa NNW 9 km/h 9 km/h 32 % 0 mm 858.0 W/m2 CLR
15:36 1.6 °C -9.1 °C 34347.6 hPa North 3.1 km/h   32 % 0 mm 849.0 W/m2 CLR
15:41 1.6 °C -9.1 °C 34347.6 hPa Calm     32 % 0 mm 846.0 W/m2 CLR
15:46 1.7 °C -8.9 °C 34347.6 hPa North 3.1 km/h 3.1 km/h 32 % 0 mm 840.0 W/m2 CLR
15:51 1.8 °C -9.1 °C 34347.6 hPa North 15 km/h 15 km/h 31 % 0 mm 831.0 W/m2 CLR
15:56 1.8 °C -9.4 °C 34337.4 hPa Calm     30 % 0 mm 821.0 W/m2 CLR
16:01 1.9 °C -9.6 °C 34337.4 hPa North 15 km/h 15 km/h 29 % 0 mm 817.0 W/m2 CLR
16:06 1.9 °C -9.6 °C 34337.4 hPa NNW 10.3 km/h 10.3 km/h 29 % 0 mm 810.0 W/m2 CLR
16:11 2.1 °C -9.8 °C 34337.4 hPa North 11.9 km/h   28 % 0 mm 802.0 W/m2 CLR
16:16 2.1 °C -9.5 °C 34337.4 hPa Calm     29 % 0 mm 793.0 W/m2 CLR
16:21 2.2 °C -9.4 °C 34327.3 hPa NNW 15 km/h 15 km/h 29 % 0 mm 782.0 W/m2 CLR
16:26 2.2 °C -9.7 °C 34327.3 hPa North 11.9 km/h 11.9 km/h 28 % 0 mm 775.0 W/m2 CLR
16:31 2.2 °C -9.7 °C 34327.3 hPa North 11.9 km/h 11.9 km/h 28 % 0 mm 765.0 W/m2 CLR
16:36 2.3 °C -9.6 °C 34327.3 hPa NNW 15.6 km/h 15.6 km/h 28 % 0 mm 756.0 W/m2 CLR
16:41 2.4 °C -9.8 °C 34327.3 hPa NW 15 km/h 15 km/h 27 % 0 mm 744.0 W/m2 CLR
16:46 2.4 °C -9.8 °C 34327.3 hPa North 26.9 km/h 26.9 km/h 27 % 0 mm 731.0 W/m2 CLR
16:51 2.4 °C -9.8 °C 34327.3 hPa NW 17.9 km/h 17.9 km/h 27 % 0 mm 721.0 W/m2 CLR
16:56 2.5 °C -9.7 °C 34327.3 hPa WNW 3.1 km/h   27 % 0 mm 707.0 W/m2 CLR
17:01 2.6 °C -9.3 °C 34327.3 hPa NNE 15.6 km/h 15.6 km/h 28 % 0 mm 696.0 W/m2 CLR
17:06 2.6 °C -9.3 °C 34327.3 hPa North 12.9 km/h 12.9 km/h 28 % 0 mm 680.0 W/m2 CLR
17:11 2.6 °C -9.3 °C 34327.3 hPa East 9 km/h 9 km/h 28 % 0 mm 668.0 W/m2 CLR
17:16 2.6 °C -9.3 °C 34313.7 hPa NNE 20.9 km/h 20.9 km/h 28 % 0 mm 656.0 W/m2 CLR
17:21 2.5 °C -9.1 °C 34313.7 hPa ENE 12.9 km/h 12.9 km/h 29 % 0 mm 645.0 W/m2 CLR
17:26 2.6 °C -9.3 °C 34313.7 hPa East 15.6 km/h 15.6 km/h 28 % 0 mm 631.0 W/m2 CLR
17:31 2.4 °C -9.5 °C 34313.7 hPa North 3.1 km/h   28 % 0 mm 617.0 W/m2 CLR
17:36 2.4 °C -9.4 °C 34313.7 hPa Calm     28 % 0 mm 606.0 W/m2 CLR
17:41 2.6 °C -9.3 °C 34303.6 hPa ENE 6 km/h 6 km/h 28 % 0 mm 591.0 W/m2 CLR
17:46 2.6 °C -9.7 °C 34313.7 hPa East 9 km/h 9 km/h 27 % 0 mm 577.0 W/m2 CLR
17:51 2.4 °C -9.8 °C 34303.6 hPa ENE 11.9 km/h 11.9 km/h 27 % 0 mm 555.0 W/m2 CLR
17:54 2.3 °C -9.6 °C 34303.6 hPa East 12.9 km/h 12.9 km/h 28 % 0 mm 548.0 W/m2 CLR
17:59 2.3 °C -9.6 °C 34303.6 hPa ENE 20.9 km/h 20.9 km/h 28 % 0 mm 536.0 W/m2 CLR
18:04 2.2 °C -9.9 °C 34303.6 hPa East 11.9 km/h 11.9 km/h 27 % 0 mm 519.0 W/m2 CLR
18:09 2.3 °C -9.3 °C 34303.6 hPa ENE 9 km/h 9 km/h 29 % 0 mm 501.0 W/m2 CLR
18:14 2.4 °C -9.5 °C 34303.6 hPa ENE 15 km/h 15 km/h 28 % 0 mm 487.0 W/m2 CLR
18:19 2.4 °C -9.4 °C 34303.6 hPa Calm     28 % 0 mm 469.0 W/m2 CLR
18:24 2.6 °C -9.7 °C 34303.6 hPa ENE 10.3 km/h 10.3 km/h 27 % 0 mm 457.0 W/m2 CLR
18:29 2.6 °C -9.7 °C 34303.6 hPa ENE 9 km/h 9 km/h 27 % 0 mm 446.0 W/m2 CLR
18:34 2.6 °C -9.3 °C 34303.6 hPa Calm     28 % 0 mm 429.0 W/m2 CLR
18:39 2.7 °C -9.2 °C 34293.4 hPa Calm     28 % 0 mm 410.0 W/m2 CLR
18:44 2.8 °C -9.5 °C 34293.4 hPa Calm     27 % 0 mm 396.0 W/m2 CLR
18:49 2.9 °C -9.4 °C 34293.4 hPa Calm     27 % 0 mm 376.0 W/m2 CLR
18:54 3 °C -9.3 °C 34293.4 hPa NNW 3.1 km/h   27 % 0 mm 364.0 W/m2 CLR
18:59 3 °C -9.3 °C 34293.4 hPa NE 3.1 km/h   27 % 0 mm 348.0 W/m2 CLR
19:04 3.1 °C -9.6 °C 34293.4 hPa NW 11.9 km/h 11.9 km/h 26 % 0 mm 327.0 W/m2 CLR
19:09 3 °C -9.6 °C 34293.4 hPa WNW 23.8 km/h 23.8 km/h 26 % 0 mm 313.0 W/m2 CLR
19:14 2.8 °C -9.8 °C 34293.4 hPa NW 15 km/h 15 km/h 26 % 0 mm 295.0 W/m2 CLR
19:19 2.7 °C -9.9 °C 34293.4 hPa Calm     26 % 0 mm 283.0 W/m2 CLR
19:24 2.7 °C -9.9 °C 34293.4 hPa Calm     26 % 0 mm 265.0 W/m2 CLR
19:29 2.7 °C -9.9 °C 34293.4 hPa North 20.9 km/h 20.9 km/h 26 % 0 mm 251.0 W/m2 CLR
19:34 2.6 °C -9.7 °C 34293.4 hPa North 17.9 km/h 17.9 km/h 27 % 0 mm 237.0 W/m2 CLR
19:39 2.6 °C -9.7 °C 34293.4 hPa WNW 9 km/h 9 km/h 27 % 0 mm 221.0 W/m2 CLR
19:44 2.6 °C -9.7 °C 34293.4 hPa WNW 9 km/h 9 km/h 27 % 0 mm 202.0 W/m2 CLR
19:49 2.4 °C -9.8 °C 34293.4 hPa NNW 20.9 km/h 20.9 km/h 27 % 0 mm 185.0 W/m2 CLR
19:54 2.4 °C -9.8 °C 34293.4 hPa North 11.9 km/h 11.9 km/h 27 % 0 mm 171.0 W/m2 CLR
19:59 2.3 °C -9.9 °C 34293.4 hPa NNW 9 km/h   27 % 0 mm 158.0 W/m2 CLR
20:04 2.3 °C -9.6 °C 34293.4 hPa NNW 9 km/h 9 km/h 28 % 0 mm 149.0 W/m2 CLR
20:09 2.2 °C -9.7 °C 34303.6 hPa NNW 15 km/h 15 km/h 28 % 0 mm 130.0 W/m2 CLR
20:14 2.2 °C -9.7 °C 34303.6 hPa Calm     28 % 0 mm 120.0 W/m2 CLR
20:19 2.1 °C -9.4 °C 34303.6 hPa NW 23.8 km/h 23.8 km/h 29 % 0 mm 105.0 W/m2 CLR
20:24 2 °C -9.6 °C 34303.6 hPa Calm     29 % 0 mm 93.0 W/m2 CLR
20:29 1.9 °C -9.6 °C 34303.6 hPa Calm     29 % 0 mm 81.0 W/m2 CLR
20:34 1.8 °C -9.4 °C 34303.6 hPa NNW 11.9 km/h 11.9 km/h 30 % 0 mm 69.0 W/m2 FEW
20:39 1.8 °C -9.4 °C 34303.6 hPa Calm     30 % 0 mm 60.0 W/m2 SCT
20:44 1.7 °C -9.5 °C 34303.6 hPa Calm     30 % 0 mm 53.0 W/m2 SCT
20:49 1.7 °C -9.3 °C 34303.6 hPa Calm     31 % 0 mm 44.0 W/m2 BKN
20:54 1.6 °C -9.3 °C 34303.6 hPa Calm     31 % 0 mm 37.0 W/m2 BKN
20:59 1.4 °C -9.4 °C 34303.6 hPa Calm     31 % 0 mm 32.0 W/m2 BKN
21:04 1.3 °C -9.3 °C 34313.7 hPa Calm     32 % 0 mm 26.0 W/m2 BKN
21:09 1.2 °C -9.1 °C 34313.7 hPa Calm     33 % 0 mm 21.0 W/m2 BKN
21:14 1.1 °C -8.5 °C 34313.7 hPa Calm     36 % 0 mm 16.0 W/m2 BKN
21:19 0.9 °C -8.8 °C 34313.7 hPa NNW 11.9 km/h 11.9 km/h 35 % 0 mm 11.0 W/m2 BKN
21:24 0.8 °C -8.7 °C 34327.3 hPa North 9 km/h   36 % 0 mm 7.0 W/m2 BKN
21:29 0.7 °C -8.6 °C 34313.7 hPa Calm     37 % 0 mm 0.0 W/m2 OVC
21:34 0.6 °C -8.7 °C 34327.3 hPa Calm     37 % 0 mm 0.0 W/m2 OVC
21:39 0.5 °C -8.5 °C 34327.3 hPa Calm     38 % 0 mm 0.0 W/m2 OVC
21:44 0.4 °C -7.9 °C 34327.3 hPa Calm     41 % 0 mm 0.0 W/m2 CLR
21:49 0.3 °C -8.4 °C 34337.4 hPa NNW 11.9 km/h 11.9 km/h 39 % 0 mm 0.0 W/m2 CLR
21:54 0.2 °C -8.8 °C 34337.4 hPa WNW 17.9 km/h 17.9 km/h 38 % 0 mm 0.0 W/m2 CLR
21:59 0.1 °C -8.8 °C 34337.4 hPa NNW 23.8 km/h 23.8 km/h 38 % 0 mm 0.0 W/m2 CLR
22:04 0.1 °C -8.9 °C 34337.4 hPa NW 29.8 km/h 29.8 km/h 38 % 0 mm 0.0 W/m2 CLR
22:10 0.1 °C -8.9 °C 34347.6 hPa NW 18.2 km/h 18.2 km/h 38 % 0 mm 0.0 W/m2 CLR
22:15 -0.1 °C -9 °C 34347.6 hPa NW 26.9 km/h 26.9 km/h 38 % 0 mm 0.0 W/m2 CLR
22:20 -0.1 °C -9.1 °C 34347.6 hPa NNW 20.9 km/h 20.9 km/h 38 % 0 mm 0.0 W/m2 CLR
22:25 -0.2 °C -8.9 °C 34361.1 hPa NW 20.8 km/h 20.8 km/h 39 % 0 mm 0.0 W/m2 CLR
22:30 -0.3 °C -9.2 °C 34361.1 hPa NW 26.9 km/h 26.9 km/h 38 % 0 mm 0.0 W/m2 CLR
22:35 -0.4 °C -9.3 °C 34361.1 hPa NNW 20.9 km/h 20.9 km/h 38 % 0 mm 0.0 W/m2 CLR
22:40 -0.4 °C -9.1 °C 34361.1 hPa NNW 29.8 km/h 29.8 km/h 39 % 0 mm 0.0 W/m2 CLR
22:45 -0.5 °C -9.4 °C 34371.3 hPa NW 23.8 km/h 23.8 km/h 38 % 0 mm 0.0 W/m2 CLR
22:50 -0.6 °C -9.5 °C 34371.3 hPa NW 29.8 km/h 29.8 km/h 38 % 0 mm 0.0 W/m2 CLR
22:55 -0.7 °C -9.5 °C 34371.3 hPa WNW 29.8 km/h 29.8 km/h 38 % 0 mm 0.0 W/m2 CLR
23:00 -0.7 °C -9.6 °C 34371.3 hPa NNW 28.5 km/h 28.5 km/h 38 % 0 mm 0.0 W/m2 CLR
23:05 -0.8 °C -9.7 °C 34371.3 hPa NW 29.8 km/h 29.8 km/h 38 % 0 mm 0.0 W/m2 CLR
23:10 -0.9 °C -9.5 °C 34384.8 hPa WNW 38.8 km/h 38.8 km/h 39 % 0 mm 0.0 W/m2 CLR
23:15 -0.9 °C -9.6 °C 34384.8 hPa NW 35.7 km/h 35.7 km/h 39 % 0 mm 0.0 W/m2 CLR
23:20 -1.1 °C -9.7 °C 34384.8 hPa NNW 38.8 km/h 38.8 km/h 39 % 0 mm 0.0 W/m2 CLR
23:25 -1.1 °C -9.7 °C 34384.8 hPa NW 44.7 km/h 44.7 km/h 39 % 0 mm 0.0 W/m2 CLR
23:30 -1.2 °C -9.8 °C 34384.8 hPa WNW 41.7 km/h 41.7 km/h 39 % 0 mm 0.0 W/m2 CLR
23:35 -1.2 °C -9.8 °C 34384.8 hPa WNW 47.6 km/h 47.6 km/h 39 % 0 mm 0.0 W/m2 CLR
23:40 -1.3 °C -9.8 °C 34395 hPa NW 29.8 km/h 29.8 km/h 39 % 0 mm 0.0 W/m2 CLR
23:45 -1.3 °C -9.9 °C 34395 hPa NW 35.7 km/h 35.7 km/h 39 % 0 mm 0.0 W/m2 CLR
23:50 -1.4 °C -10 °C 34395 hPa WNW 32.8 km/h 32.8 km/h 39 % 0 mm 0.0 W/m2 CLR
23:55 -1.5 °C -9.8 °C 34395 hPa WNW 25.9 km/h 25.9 km/h 40 % 0 mm 0.0 W/m2 CLR
Lo Temps de Massalio
Compliments of Weather Underground - 1.25 mb